Weather reports worldwide

Advertisment
S. Valentino Alla Muta, Italy (16008): temperature & dewpoint: 13.08.2019 00:00:00 - 19.08.2019 00:00:00 (CEST)S. Valentino Alla Muta, Italy (16008): wind speed: 13.08.2019 00:00:00 - 19.08.2019 00:00:00 (CEST)S. Valentino Alla Muta, Italy (16008): wind direction: 13.08.2019 00:00:00 - 19.08.2019 00:00:00 (CEST)S. Valentino Alla Muta, Italy (16008): visibility: 13.08.2019 00:00:00 - 19.08.2019 00:00:00 (CEST)
Date & Time tt [°C] td [°C] ff [km/h] ff [kn] dd vv [km]
19.08.2019 00:00:00 17,4 14,9 9 5 S 20
18.08.2019 23:00:00 17,8 15,1 11 6 SSE 20
18.08.2019 22:00:00 18,0 14,3 11 6 SSE 20
18.08.2019 21:00:00 18,0 13,5 13 7 SSE 20
18.08.2019 20:00:00 19,0 13,4 13 7 SE 20
18.08.2019 19:00:00 19,4 12,7 13 7 S 20
18.08.2019 18:00:00 20,0 12,0 15 8 SSW 20
18.08.2019 17:00:00 19,8 11,1 16 9 S 20
18.08.2019 16:00:00 19,8 11,3 15 8 S 20
18.08.2019 15:00:00 19,8 11,3 18 10 S 20
18.08.2019 14:00:00 19,0 11,1 16 9 S 20
18.08.2019 13:00:00 18,6 11,9 16 9 S 20
18.08.2019 12:00:00 17,4 11,9 15 8 SSW 20
18.08.2019 11:00:00 15,2 11,6 13 7 S 15
18.08.2019 10:00:00 14,4 11,5 9 5 SSE 9
18.08.2019 09:00:00 12,6 11,5 4 2 WNW 9
18.08.2019 08:00:00 12,0 11,2 4 2 NNE 9
18.08.2019 07:00:00 12,6 11,5 0 0 N 9
18.08.2019 06:00:00 13,0 12,2 4 2 NNE 8
18.08.2019 05:00:00 13,0 12,2 4 2 NNE 15
18.08.2019 04:00:00 13,0 12,1 4 2 NNE 15
18.08.2019 03:00:00 13,4 12,1 4 2 NNE 15
18.08.2019 02:00:00 13,6 12,3 4 2 ENE 15
18.08.2019 01:00:00 13,6 12,0 4 2 ENE 15
18.08.2019 00:00:00 14,4 12,3 8 4 SE 15
17.08.2019 23:00:00 15,0 12,7 9 5 WSW 15
17.08.2019 22:00:00 15,0 12,0 9 5 SW 15
17.08.2019 21:00:00 16,0 12,2 13 7 SSW 15
17.08.2019 20:00:00 16,2 10,9 13 7 SSE 15
17.08.2019 19:00:00 16,4 10,5 15 8 SSE 15
17.08.2019 18:00:00 17,0 11,1 13 7 S 15
17.08.2019 17:00:00 17,0 10,8 15 8 S 15
17.08.2019 16:00:00 17,0 11,1 16 9 SSW 15
17.08.2019 15:00:00 17,0 10,8 15 8 SSW 15
17.08.2019 14:00:00 16,8 10,9 13 7 S 15
17.08.2019 13:00:00 16,4 9,8 13 7 S 15
17.08.2019 12:00:00 15,2 9,8 11 6 S 15
17.08.2019 11:00:00 14,4 9,4 11 6 S 18
17.08.2019 10:00:00 13,6 8,7 5 3 WSW 15
17.08.2019 09:00:00 11,6 8,6 4 2 NE 15
17.08.2019 08:00:00 10,6 7,8 4 2 NNE 20
17.08.2019 07:00:00 10,0 8,1 8 4 NNE 20
17.08.2019 06:00:00 10,0 8,4 4 2 NE 12
17.08.2019 05:00:00 10,0 8,4 4 2 NNE 12
17.08.2019 04:00:00 10,4 8,5 0 0 N 12
17.08.2019 03:00:00 11,0 8,6 4 2 NNE 10
17.08.2019 02:00:00 11,0 8,6 0 0 N 10
17.08.2019 01:00:00 11,6 8,8 4 2 N 10
17.08.2019 00:00:00 12,0 8,3 0 0 N 10
16.08.2019 23:00:00 12,0 8,1 0 0 N 12
16.08.2019 22:00:00 12,8 7,9 0 0 N 15
16.08.2019 21:00:00 14,0 7,8 0 0 N 20
16.08.2019 20:00:00 16,0 7,5 0 0 N 20
16.08.2019 19:00:00 18,0 3,1 0 0 N 20
16.08.2019 18:00:00 19,0 2,0 5 3 SW 10
16.08.2019 17:00:00 20,2 -0,4 8 4 N 20
16.08.2019 16:00:00 20,0 -3,6 9 5 NNE 20
16.08.2019 15:00:00 19,8 -0,2 9 5 N 20
16.08.2019 14:00:00 19,6 0,1 9 5 N 20
16.08.2019 13:00:00 18,6 0,2 11 6 N 20
16.08.2019 12:00:00 17,0 2,2 11 6 NNE 20
16.08.2019 11:00:00 14,0 6,4 9 5 NNE 18
16.08.2019 10:00:00 12,0 6,3 9 5 NE 18
16.08.2019 09:00:00 9,6 7,9 9 5 NNE 18
16.08.2019 08:00:00 9,4 8,3 8 4 NNW 15
16.08.2019 07:00:00 9,4 8,3 5 3 WNW 15
16.08.2019 06:00:00 9,6 8,8 16 9 NNE 10
16.08.2019 05:00:00 10,0 8,8 8 4 N 10
16.08.2019 04:00:00 10,0 8,9 9 5 N 10
16.08.2019 03:00:00 10,0 8,6 5 3 N 10
16.08.2019 02:00:00 10,2 9,3 11 6 NNE 9
16.08.2019 01:00:00 10,8 10,0 8 4 NNW 9
16.08.2019 00:00:00 11,6 10,8 8 4 N 7
15.08.2019 23:00:00 12,0 10,3 11 6 NE 10
15.08.2019 22:00:00 12,0 10,1 9 5 NNE 10
15.08.2019 21:00:00 12,8 10,7 9 5 NE 10
15.08.2019 20:00:00 15,4 8,9 15 8 N 8
15.08.2019 19:00:00 16,2 8,9 11 6 NNE 15
15.08.2019 18:00:00 16,4 7,9 15 8 S 15
15.08.2019 17:00:00 16,4 6,8 16 9 SSW 15
15.08.2019 16:00:00 17,0 7,6 15 8 S 15
15.08.2019 15:00:00 17,0 7,9 9 5 SSW 15
15.08.2019 14:00:00 15,2 6,0 13 7 S 15
15.08.2019 13:00:00 14,4 6,0 16 9 SSW 15
15.08.2019 12:00:00 13,6 5,5 16 9 S 15
15.08.2019 11:00:00 13,0 4,9 13 7 SSW 15
15.08.2019 10:00:00 11,6 5,2 11 6 SW 18
15.08.2019 09:00:00 8,6 5,4 0 0 N 20
15.08.2019 08:00:00 8,0 5,1 4 2 NNE 20
15.08.2019 07:00:00 8,0 5,5 5 3 NNE 20
15.08.2019 06:00:00 8,4 5,9 5 3 N 10
15.08.2019 05:00:00 8,6 5,9 5 3 N 10
15.08.2019 04:00:00 9,0 5,8 5 3 NNE 10
15.08.2019 03:00:00 10,0 6,4 4 2 N 10
15.08.2019 02:00:00 10,0 6,4 4 2 N 12
15.08.2019 01:00:00 10,4 6,6 5 3 N 12
15.08.2019 00:00:00 12,0 6,0 8 4 N 10
14.08.2019 23:00:00 11,8 5,9 8 4 N 15
14.08.2019 22:00:00 12,4 4,9 5 3 N 15
14.08.2019 21:00:00 14,0 2,0 5 3 NE 20
14.08.2019 20:00:00 14,8 0,3 5 3 ENE 20
14.08.2019 19:00:00 16,0 -2,5 5 3 NNE 20
14.08.2019 18:00:00 17,8 -0,9 11 6 NNE 20
14.08.2019 17:00:00 18,0 -1,8 13 7 NNE 20
14.08.2019 16:00:00 18,0 -3,4 11 6 N 20
14.08.2019 15:00:00 18,8 -3,4 13 7 NNE 20
14.08.2019 14:00:00 18,2 -3,9 9 5 N 20
14.08.2019 13:00:00 17,2 -4,7 13 7 NNE 20
14.08.2019 12:00:00 16,4 -4,8 11 6 N 20
14.08.2019 11:00:00 12,4 3,4 9 5 NE 20
14.08.2019 10:00:00 10,8 4,1 11 6 ENE 20
14.08.2019 09:00:00 8,8 5,2 13 7 NE 15
14.08.2019 08:00:00 8,8 5,9 13 7 ENE 15
14.08.2019 07:00:00 9,0 6,4 15 8 NE 10
14.08.2019 06:00:00 9,8 5,6 13 7 NE 10
14.08.2019 05:00:00 10,0 6,7 18 10 NE 10
14.08.2019 04:00:00 10,0 6,7 18 10 ENE 10
14.08.2019 03:00:00 10,2 6,7 18 10 NE 10
14.08.2019 02:00:00 10,2 6,4 16 9 NE 10
14.08.2019 01:00:00 10,4 7,7 16 9 NNE 10
14.08.2019 00:00:00 10,8 7,1 13 7 NNE 10
13.08.2019 23:00:00 10,8 7,9 15 8 NE 10
13.08.2019 22:00:00 11,0 8,2 16 9 NE 10
13.08.2019 21:00:00 10,8 8,0 15 8 NNE 10
13.08.2019 20:00:00 11,4 9,3 15 8 NNE 9
13.08.2019 19:00:00 13,4 10,0 13 7 NNE 6
13.08.2019 18:00:00 14,0 5,4 18 10 N 8
13.08.2019 17:00:00 14,0 5,1 15 8 NNE 12
13.08.2019 16:00:00 14,8 5,6 18 10 NNE 15
13.08.2019 15:00:00 15,0 6,6 18 10 NNE 12
13.08.2019 14:00:00 16,4 6,5 16 9 NE 15
13.08.2019 13:00:00 16,8 6,0 18 10 NE 15
13.08.2019 12:00:00 15,8 6,5 18 10 NE 18
13.08.2019 11:00:00 13,8 8,0 13 7 NE 18
13.08.2019 10:00:00 12,0 7,9 11 6 NE 18
13.08.2019 09:00:00 11,4 8,1 11 6 NNE 20
13.08.2019 08:00:00 11,0 8,6 11 6 NNE 18
13.08.2019 07:00:00 11,0 8,1 9 5 NE 15
13.08.2019 06:00:00 11,0 8,6 11 6 NNE 12
13.08.2019 05:00:00 11,0 8,6 11 6 NE 10
13.08.2019 04:00:00 11,2 9,0 11 6 NE 10
13.08.2019 03:00:00 11,2 9,1 13 7 ENE 10
13.08.2019 02:00:00 11,4 9,5 11 6 NE 10
13.08.2019 01:00:00 - - - - - -
13.08.2019 00:00:00 - - - - - -

tt = temperature
td = dewpoint
ff = wind speed
dd = wind direction
vv = visibility

Next stations